sensor_id;sensor_type;location;lat;lon;timestamp;pressure;altitude;pressure_sealevel;temperature;humidity
20105;BME280;10212;42.714;23.310;2024-03-25T00:01:18;93973.28;;;1.73;100.00
20105;BME280;10212;42.714;23.310;2024-03-25T00:11:18;93967.88;;;1.29;100.00
20105;BME280;10212;42.714;23.310;2024-03-25T00:21:19;93956.75;;;1.13;100.00
20105;BME280;10212;42.714;23.310;2024-03-25T00:31:19;93948.34;;;1.19;100.00
20105;BME280;10212;42.714;23.310;2024-03-25T00:41:20;93939.63;;;1.29;100.00
20105;BME280;10212;42.714;23.310;2024-03-25T00:51:20;93946.13;;;1.55;100.00
20105;BME280;10212;42.714;23.310;2024-03-25T01:01:20;93927.16;;;1.56;100.00
20105;BME280;10212;42.714;23.310;2024-03-25T01:11:21;93902.44;;;1.70;100.00
20105;BME280;10212;42.714;23.310;2024-03-25T01:21:21;93879.13;;;2.02;100.00
20105;BME280;10212;42.714;23.310;2024-03-25T01:31:22;93896.50;;;2.15;100.00
20105;BME280;10212;42.714;23.310;2024-03-25T01:41:22;93916.97;;;2.23;100.00
20105;BME280;10212;42.714;23.310;2024-03-25T01:51:23;93916.81;;;2.10;100.00
20105;BME280;10212;42.714;23.310;2024-03-25T02:01:24;93937.09;;;1.89;100.00
20105;BME280;10212;42.714;23.310;2024-03-25T02:11:26;93939.25;;;1.71;100.00
20105;BME280;10212;42.714;23.310;2024-03-25T02:21:26;93929.47;;;1.51;100.00
20105;BME280;10212;42.714;23.310;2024-03-25T02:41:27;93938.69;;;1.45;100.00
20105;BME280;10212;42.714;23.310;2024-03-25T02:51:30;93946.69;;;1.65;100.00
20105;BME280;10212;42.714;23.310;2024-03-25T03:01:30;93945.72;;;1.82;100.00
20105;BME280;10212;42.714;23.310;2024-03-25T03:11:31;93949.88;;;1.83;100.00
20105;BME280;10212;42.714;23.310;2024-03-25T03:21:31;93935.78;;;1.93;100.00
20105;BME280;10212;42.714;23.310;2024-03-25T03:31:32;93971.44;;;2.12;100.00
20105;BME280;10212;42.714;23.310;2024-03-25T03:41:33;93983.84;;;2.23;100.00
20105;BME280;10212;42.714;23.310;2024-03-25T03:51:33;93992.38;;;2.24;100.00
20105;BME280;10212;42.714;23.310;2024-03-25T04:01:34;93995.22;;;2.14;100.00
20105;BME280;10212;42.714;23.310;2024-03-25T04:11:37;94030.41;;;2.13;100.00
20105;BME280;10212;42.714;23.310;2024-03-25T04:21:37;94027.03;;;2.13;100.00
20105;BME280;10212;42.714;23.310;2024-03-25T04:31:39;94041.75;;;2.04;100.00
20105;BME280;10212;42.714;23.310;2024-03-25T04:41:39;94079.19;;;2.22;100.00
20105;BME280;10212;42.714;23.310;2024-03-25T04:51:40;94090.19;;;2.15;100.00
20105;BME280;10212;42.714;23.310;2024-03-25T05:01:41;94089.22;;;2.16;100.00
20105;BME280;10212;42.714;23.310;2024-03-25T05:11:42;94085.59;;;2.26;100.00
20105;BME280;10212;42.714;23.310;2024-03-25T05:21:42;94093.75;;;2.45;100.00
20105;BME280;10212;42.714;23.310;2024-03-25T05:31:56;94102.81;;;2.56;100.00
20105;BME280;10212;42.714;23.310;2024-03-25T05:41:57;94111.09;;;2.51;100.00
20105;BME280;10212;42.714;23.310;2024-03-25T05:51:57;94141.16;;;2.65;100.00
20105;BME280;10212;42.714;23.310;2024-03-25T06:01:57;94148.81;;;3.04;99.48
20105;BME280;10212;42.714;23.310;2024-03-25T06:11:58;94156.63;;;2.96;98.66
20105;BME280;10212;42.714;23.310;2024-03-25T06:21:58;94166.13;;;2.80;98.65
20105;BME280;10212;42.714;23.310;2024-03-25T06:31:59;94188.59;;;3.17;95.83
20105;BME280;10212;42.714;23.310;2024-03-25T06:42:18;94197.19;;;4.35;90.81
20105;BME280;10212;42.714;23.310;2024-03-25T06:52:18;94215.91;;;4.22;92.23
20105;BME280;10212;42.714;23.310;2024-03-25T07:02:18;94228.25;;;4.05;91.32
20105;BME280;10212;42.714;23.310;2024-03-25T07:12:19;94230.78;;;4.42;88.10
20105;BME280;10212;42.714;23.310;2024-03-25T07:22:20;94242.19;;;4.10;86.94
20105;BME280;10212;42.714;23.310;2024-03-25T07:32:20;94241.28;;;4.18;86.73
20105;BME280;10212;42.714;23.310;2024-03-25T07:42:21;94241.47;;;4.39;85.51
20105;BME280;10212;42.714;23.310;2024-03-25T07:52:21;94249.81;;;4.41;83.98
20105;BME280;10212;42.714;23.310;2024-03-25T08:02:22;94245.47;;;4.92;82.96
20105;BME280;10212;42.714;23.310;2024-03-25T08:12:22;94257.03;;;4.74;83.02
20105;BME280;10212;42.714;23.310;2024-03-25T08:22:22;94275.50;;;4.93;80.28
20105;BME280;10212;42.714;23.310;2024-03-25T08:32:24;94287.13;;;5.82;77.99
20105;BME280;10212;42.714;23.310;2024-03-25T08:42:24;94296.50;;;5.89;75.04
20105;BME280;10212;42.714;23.310;2024-03-25T08:52:25;94296.09;;;6.35;72.57
20105;BME280;10212;42.714;23.310;2024-03-25T09:02:25;94300.19;;;6.09;71.45
20105;BME280;10212;42.714;23.310;2024-03-25T09:12:26;94302.53;;;6.03;73.15
20105;BME280;10212;42.714;23.310;2024-03-25T09:22:26;94311.03;;;6.33;72.58
20105;BME280;10212;42.714;23.310;2024-03-25T09:32:27;94321.81;;;6.36;70.25
20105;BME280;10212;42.714;23.310;2024-03-25T09:42:39;94317.06;;;6.67;68.99
20105;BME280;10212;42.714;23.310;2024-03-25T09:52:42;94313.50;;;6.95;68.04
20105;BME280;10212;42.714;23.310;2024-03-25T10:02:42;94322.28;;;7.01;66.46
20105;BME280;10212;42.714;23.310;2024-03-25T10:12:43;94327.66;;;6.93;65.11
20105;BME280;10212;42.714;23.310;2024-03-25T10:22:44;94310.63;;;7.71;64.30
20105;BME280;10212;42.714;23.310;2024-03-25T10:43:03;94312.91;;;8.07;56.83
20105;BME280;10212;42.714;23.310;2024-03-25T10:53:04;94303.88;;;7.43;58.91
20105;BME280;10212;42.714;23.310;2024-03-25T11:03:05;94317.69;;;7.10;58.31
20105;BME280;10212;42.714;23.310;2024-03-25T11:13:19;94304.13;;;7.01;60.53
20105;BME280;10212;42.714;23.310;2024-03-25T11:23:19;94313.09;;;6.85;64.38
20105;BME280;10212;42.714;23.310;2024-03-25T11:33:20;94331.03;;;6.66;66.50
20105;BME280;10212;42.714;23.310;2024-03-25T11:43:22;94325.78;;;6.46;70.51
20105;BME280;10212;42.714;23.310;2024-03-25T11:53:23;94326.59;;;6.60;67.05
20105;BME280;10212;42.714;23.310;2024-03-25T12:03:23;94325.47;;;6.90;64.58
20105;BME280;10212;42.714;23.310;2024-03-25T12:13:25;94327.88;;;7.05;64.55
20105;BME280;10212;42.714;23.310;2024-03-25T12:23:30;94326.19;;;6.49;65.49
20105;BME280;10212;42.714;23.310;2024-03-25T12:33:42;94327.66;;;7.13;62.81
20105;BME280;10212;42.714;23.310;2024-03-25T12:43:44;94326.38;;;7.77;58.88
20105;BME280;10212;42.714;23.310;2024-03-25T12:53:47;94348.81;;;7.30;55.35
20105;BME280;10212;42.714;23.310;2024-03-25T13:03:47;94353.78;;;7.18;58.58
20105;BME280;10212;42.714;23.310;2024-03-25T13:13:47;94349.41;;;7.26;59.36
20105;BME280;10212;42.714;23.310;2024-03-25T13:23:48;94356.75;;;7.63;60.62
20105;BME280;10212;42.714;23.310;2024-03-25T13:33:48;94343.50;;;8.44;56.82
20105;BME280;10212;42.714;23.310;2024-03-25T13:43:49;94365.22;;;8.70;51.49
20105;BME280;10212;42.714;23.310;2024-03-25T13:53:49;94374.63;;;8.51;52.75
20105;BME280;10212;42.714;23.310;2024-03-25T14:03:50;94422.94;;;6.77;64.34
20105;BME280;10212;42.714;23.310;2024-03-25T14:13:50;94436.00;;;6.13;67.50
20105;BME280;10212;42.714;23.310;2024-03-25T14:23:51;94450.03;;;6.25;65.51
20105;BME280;10212;42.714;23.310;2024-03-25T14:33:51;94413.81;;;7.15;61.03
20105;BME280;10212;42.714;23.310;2024-03-25T14:43:52;94413.25;;;7.20;58.50
20105;BME280;10212;42.714;23.310;2024-03-25T14:53:52;94422.03;;;7.59;57.61
20105;BME280;10212;42.714;23.310;2024-03-25T15:03:52;94422.41;;;7.77;58.63
20105;BME280;10212;42.714;23.310;2024-03-25T15:13:54;94452.88;;;6.93;65.02
20105;BME280;10212;42.714;23.310;2024-03-25T15:23:54;94459.06;;;6.43;68.58
20105;BME280;10212;42.714;23.310;2024-03-25T15:33:56;94454.78;;;6.22;61.52
20105;BME280;10212;42.714;23.310;2024-03-25T15:43:56;94469.06;;;6.11;62.87
20105;BME280;10212;42.714;23.310;2024-03-25T15:53:57;94486.75;;;6.07;64.94
20105;BME280;10212;42.714;23.310;2024-03-25T16:03:59;94479.19;;;6.06;63.50
20105;BME280;10212;42.714;23.310;2024-03-25T16:13:59;94472.66;;;5.88;62.80
20105;BME280;10212;42.714;23.310;2024-03-25T16:23:59;94485.56;;;5.81;57.74
20105;BME280;10212;42.714;23.310;2024-03-25T16:34:01;94492.41;;;5.67;58.45
20105;BME280;10212;42.714;23.310;2024-03-25T16:44:02;94496.88;;;5.51;60.29
20105;BME280;10212;42.714;23.310;2024-03-25T16:54:03;94498.91;;;5.34;61.93
20105;BME280;10212;42.714;23.310;2024-03-25T17:04:04;94503.38;;;5.25;63.09
20105;BME280;10212;42.714;23.310;2024-03-25T17:14:05;94522.13;;;5.12;65.14
20105;BME280;10212;42.714;23.310;2024-03-25T17:24:05;94537.06;;;4.95;66.56
20105;BME280;10212;42.714;23.310;2024-03-25T17:34:06;94546.88;;;4.85;67.56
20105;BME280;10212;42.714;23.310;2024-03-25T17:44:07;94561.69;;;4.76;68.75
20105;BME280;10212;42.714;23.310;2024-03-25T17:54:07;94575.38;;;4.76;68.71
20105;BME280;10212;42.714;23.310;2024-03-25T18:04:08;94581.16;;;4.78;67.89
20105;BME280;10212;42.714;23.310;2024-03-25T18:14:08;94593.56;;;4.68;67.50
20105;BME280;10212;42.714;23.310;2024-03-25T18:24:09;94610.56;;;4.62;67.50
20105;BME280;10212;42.714;23.310;2024-03-25T18:34:10;94621.41;;;4.57;67.24
20105;BME280;10212;42.714;23.310;2024-03-25T18:44:10;94626.75;;;4.71;66.04
20105;BME280;10212;42.714;23.310;2024-03-25T18:54:11;94620.44;;;4.58;68.59
20105;BME280;10212;42.714;23.310;2024-03-25T19:04:12;94632.78;;;4.48;68.94
20105;BME280;10212;42.714;23.310;2024-03-25T19:14:12;94656.94;;;4.17;70.69
20105;BME280;10212;42.714;23.310;2024-03-25T19:24:13;94668.47;;;4.06;72.51
20105;BME280;10212;42.714;23.310;2024-03-25T19:34:13;94658.78;;;3.84;74.94
20105;BME280;10212;42.714;23.310;2024-03-25T19:44:14;94674.31;;;3.76;75.81
20105;BME280;10212;42.714;23.310;2024-03-25T19:54:14;94678.53;;;3.37;77.50
20105;BME280;10212;42.714;23.310;2024-03-25T20:04:15;94676.16;;;3.19;77.14
20105;BME280;10212;42.714;23.310;2024-03-25T20:14:15;94688.13;;;3.03;80.19
20105;BME280;10212;42.714;23.310;2024-03-25T20:24:17;94707.81;;;2.87;81.69
20105;BME280;10212;42.714;23.310;2024-03-25T20:34:17;94702.72;;;2.54;82.59
20105;BME280;10212;42.714;23.310;2024-03-25T20:44:17;94703.53;;;2.38;83.00
20105;BME280;10212;42.714;23.310;2024-03-25T20:54:18;94717.66;;;2.34;85.00
20105;BME280;10212;42.714;23.310;2024-03-25T21:04:19;94736.94;;;2.21;85.17
20105;BME280;10212;42.714;23.310;2024-03-25T21:14:20;94748.66;;;2.07;87.27
20105;BME280;10212;42.714;23.310;2024-03-25T21:24:20;94757.63;;;1.86;89.30
20105;BME280;10212;42.714;23.310;2024-03-25T21:34:20;94762.88;;;1.68;90.74
20105;BME280;10212;42.714;23.310;2024-03-25T21:44:21;94759.16;;;1.62;91.36
20105;BME280;10212;42.714;23.310;2024-03-25T21:54:21;94774.50;;;1.46;92.96
20105;BME280;10212;42.714;23.310;2024-03-25T22:04:22;94795.94;;;1.63;92.79
20105;BME280;10212;42.714;23.310;2024-03-25T22:14:22;94784.31;;;1.15;95.11
20105;BME280;10212;42.714;23.310;2024-03-25T22:24:24;94784.31;;;1.15;95.17
20105;BME280;10212;42.714;23.310;2024-03-25T22:34:25;94784.25;;;1.07;96.84
20105;BME280;10212;42.714;23.310;2024-03-25T22:44:25;94791.38;;;1.13;96.86
20105;BME280;10212;42.714;23.310;2024-03-25T22:54:26;94790.59;;;1.21;96.71
20105;BME280;10212;42.714;23.310;2024-03-25T23:04:26;94786.50;;;1.10;97.47
20105;BME280;10212;42.714;23.310;2024-03-25T23:14:26;94779.84;;;0.99;99.12
20105;BME280;10212;42.714;23.310;2024-03-25T23:24:27;94799.81;;;1.05;99.03
20105;BME280;10212;42.714;23.310;2024-03-25T23:34:27;94815.50;;;0.76;100.00
20105;BME280;10212;42.714;23.310;2024-03-25T23:44:28;94817.97;;;0.67;100.00
20105;BME280;10212;42.714;23.310;2024-03-25T23:54:28;94812.03;;;0.85;100.00
